sensor_id;sensor_type;location;lat;lon;timestamp;pressure;altitude;pressure_sealevel;temperature;humidity
33554;BME280;19885;42.208;24.952;2023-03-23T00:01:57;99908.84;;;11.34;100.00
33554;BME280;19885;42.208;24.952;2023-03-23T00:04:26;99900.13;;;11.29;100.00
33554;BME280;19885;42.208;24.952;2023-03-23T00:06:54;99902.75;;;11.34;100.00
33554;BME280;19885;42.208;24.952;2023-03-23T00:09:22;99893.19;;;11.36;100.00
33554;BME280;19885;42.208;24.952;2023-03-23T00:11:51;99900.16;;;11.35;100.00
33554;BME280;19885;42.208;24.952;2023-03-23T00:14:17;99899.25;;;11.32;100.00
33554;BME280;19885;42.208;24.952;2023-03-23T00:16:47;99891.44;;;11.33;100.00
33554;BME280;19885;42.208;24.952;2023-03-23T00:19:14;99833.03;;;10.98;100.00
33554;BME280;19885;42.208;24.952;2023-03-23T00:21:41;99885.34;;;11.28;100.00
33554;BME280;19885;42.208;24.952;2023-03-23T00:24:15;99892.34;;;11.35;100.00
33554;BME280;19885;42.208;24.952;2023-03-23T00:26:45;99881.84;;;11.25;100.00
33554;BME280;19885;42.208;24.952;2023-03-23T00:29:20;99893.97;;;11.14;100.00
33554;BME280;19885;42.208;24.952;2023-03-23T00:31:47;99882.69;;;11.21;100.00
33554;BME280;19885;42.208;24.952;2023-03-23T00:34:18;99897.50;;;11.28;100.00
33554;BME280;19885;42.208;24.952;2023-03-23T00:36:52;99896.59;;;11.24;100.00
33554;BME280;19885;42.208;24.952;2023-03-23T00:39:22;99895.72;;;11.22;100.00
33554;BME280;19885;42.208;24.952;2023-03-23T00:41:50;99898.34;;;11.22;100.00
33554;BME280;19885;42.208;24.952;2023-03-23T00:44:15;99887.06;;;11.25;100.00
33554;BME280;19885;42.208;24.952;2023-03-23T00:46:47;99891.41;;;11.26;100.00
33554;BME280;19885;42.208;24.952;2023-03-23T00:49:17;99896.63;;;11.27;100.00
33554;BME280;19885;42.208;24.952;2023-03-23T00:51:46;99889.66;;;11.19;100.00
33554;BME280;19885;42.208;24.952;2023-03-23T00:54:12;99887.03;;;11.17;100.00
33554;BME280;19885;42.208;24.952;2023-03-23T00:56:38;99887.06;;;11.22;100.00
33554;BME280;19885;42.208;24.952;2023-03-23T00:59:06;99869.63;;;11.12;100.00
33554;BME280;19885;42.208;24.952;2023-03-23T01:01:33;99881.84;;;11.25;100.00
33554;BME280;19885;42.208;24.952;2023-03-23T01:03:59;99880.97;;;11.27;100.00
33554;BME280;19885;42.208;24.952;2023-03-23T01:06:31;99883.56;;;11.24;100.00
33554;BME280;19885;42.208;24.952;2023-03-23T01:08:58;99887.91;;;11.21;100.00
33554;BME280;19885;42.208;24.952;2023-03-23T01:11:24;99885.31;;;11.24;100.00
33554;BME280;19885;42.208;24.952;2023-03-23T01:13:50;99853.09;;;11.11;100.00
33554;BME280;19885;42.208;24.952;2023-03-23T01:16:16;99871.38;;;11.14;100.00
33554;BME280;19885;42.208;24.952;2023-03-23T01:18:42;99860.06;;;11.15;100.00
33554;BME280;19885;42.208;24.952;2023-03-23T01:21:10;99882.72;;;11.25;100.00
33554;BME280;19885;42.208;24.952;2023-03-23T01:23:39;99873.16;;;11.29;100.00
33554;BME280;19885;42.208;24.952;2023-03-23T01:26:16;99876.63;;;11.25;100.00
33554;BME280;19885;42.208;24.952;2023-03-23T01:28:46;99837.38;;;10.96;100.00
33554;BME280;19885;42.208;24.952;2023-03-23T01:31:14;99867.91;;;11.20;100.00
33554;BME280;19885;42.208;24.952;2023-03-23T01:33:41;99858.28;;;11.05;100.00
33554;BME280;19885;42.208;24.952;2023-03-23T01:36:12;99867.84;;;11.11;100.00
33554;BME280;19885;42.208;24.952;2023-03-23T01:38:40;99868.72;;;11.05;100.00
33554;BME280;19885;42.208;24.952;2023-03-23T01:41:06;99876.50;;;11.02;100.00
33554;BME280;19885;42.208;24.952;2023-03-23T01:43:34;99879.06;;;10.93;100.00
33554;BME280;19885;42.208;24.952;2023-03-23T01:46:00;99879.94;;;10.88;100.00
33554;BME280;19885;42.208;24.952;2023-03-23T01:48:34;99883.34;;;10.79;100.00
33554;BME280;19885;42.208;24.952;2023-03-23T01:51:04;99876.34;;;10.67;100.00
33554;BME280;19885;42.208;24.952;2023-03-23T01:53:37;99847.50;;;10.42;100.00
33554;BME280;19885;42.208;24.952;2023-03-23T01:56:05;99888.44;;;10.59;100.00
33554;BME280;19885;42.208;24.952;2023-03-23T01:58:34;99884.94;;;10.56;100.00
33554;BME280;19885;42.208;24.952;2023-03-23T02:01:04;99884.00;;;10.45;100.00
33554;BME280;19885;42.208;24.952;2023-03-23T02:03:31;99875.22;;;10.37;100.00
33554;BME280;19885;42.208;24.952;2023-03-23T02:05:57;99881.28;;;10.34;100.00
33554;BME280;19885;42.208;24.952;2023-03-23T02:08:29;99884.66;;;10.21;100.00
33554;BME280;19885;42.208;24.952;2023-03-23T02:10:58;99883.63;;;10.07;100.00
33554;BME280;19885;42.208;24.952;2023-03-23T02:13:24;99879.25;;;10.01;100.00
33554;BME280;19885;42.208;24.952;2023-03-23T02:16:16;99882.72;;;9.99;100.00
33554;BME280;19885;42.208;24.952;2023-03-23T02:35:28;99886.63;;;9.58;100.00
33554;BME280;19885;42.208;24.952;2023-03-23T02:38:00;99899.72;;;9.67;100.00
33554;BME280;19885;42.208;24.952;2023-03-23T02:40:38;99901.44;;;9.68;100.00
33554;BME280;19885;42.208;24.952;2023-03-23T02:43:09;99904.00;;;9.62;100.00
33554;BME280;19885;42.208;24.952;2023-03-23T02:45:37;99906.59;;;9.63;100.00
33554;BME280;19885;42.208;24.952;2023-03-23T02:48:09;99906.59;;;9.63;100.00
33554;BME280;19885;42.208;24.952;2023-03-23T02:50:37;99904.94;;;9.65;100.00
33554;BME280;19885;42.208;24.952;2023-03-23T02:53:07;99895.34;;;9.64;100.00
33554;BME280;19885;42.208;24.952;2023-03-23T02:55:41;99881.41;;;9.56;100.00
33554;BME280;19885;42.208;24.952;2023-03-23T02:58:11;99910.19;;;9.70;100.00
33554;BME280;19885;42.208;24.952;2023-03-23T03:00:40;99916.22;;;9.70;100.00
33554;BME280;19885;42.208;24.952;2023-03-23T03:03:13;99918.03;;;9.74;100.00
33554;BME280;19885;42.208;24.952;2023-03-23T03:08:55;99915.53;;;9.85;100.00
33554;BME280;19885;42.208;24.952;2023-03-23T03:11:24;99913.81;;;9.87;100.00
33554;BME280;19885;42.208;24.952;2023-03-23T03:19:15;99927.72;;;9.90;100.00
33554;BME280;19885;42.208;24.952;2023-03-23T03:21:45;99924.28;;;9.91;100.00
33554;BME280;19885;42.208;24.952;2023-03-23T03:24:15;99926.03;;;9.95;100.00
33554;BME280;19885;42.208;24.952;2023-03-23T03:26:46;99918.22;;;9.92;100.00
33554;BME280;19885;42.208;24.952;2023-03-23T03:29:20;99921.69;;;9.93;100.00
33554;BME280;19885;42.208;24.952;2023-03-23T03:31:49;99925.16;;;9.92;100.00
33554;BME280;19885;42.208;24.952;2023-03-23T03:34:19;99932.06;;;9.90;100.00
33554;BME280;19885;42.208;24.952;2023-03-23T03:36:45;99935.47;;;9.84;100.00
33554;BME280;19885;42.208;24.952;2023-03-23T03:39:13;99938.94;;;9.83;100.00
33554;BME280;19885;42.208;24.952;2023-03-23T03:41:41;99931.94;;;9.79;100.00
33554;BME280;19885;42.208;24.952;2023-03-23T03:44:08;99929.31;;;9.76;100.00
33554;BME280;19885;42.208;24.952;2023-03-23T03:46:34;99938.91;;;9.79;100.00
33554;BME280;19885;42.208;24.952;2023-03-23T03:49:01;99942.34;;;9.76;100.00
33554;BME280;19885;42.208;24.952;2023-03-23T03:51:28;99926.69;;;9.73;100.00
33554;BME280;19885;42.208;24.952;2023-03-23T03:53:55;99928.41;;;9.73;100.00
33554;BME280;19885;42.208;24.952;2023-03-23T03:56:22;99932.78;;;9.77;100.00
33554;BME280;19885;42.208;24.952;2023-03-23T03:58:51;99930.16;;;9.75;100.00
33554;BME280;19885;42.208;24.952;2023-03-23T04:01:19;99928.44;;;9.74;100.00
33554;BME280;19885;42.208;24.952;2023-03-23T04:03:50;99919.75;;;9.75;100.00
33554;BME280;19885;42.208;24.952;2023-03-23T04:06:17;99938.84;;;9.74;100.00
33554;BME280;19885;42.208;24.952;2023-03-23T04:08:43;99936.25;;;9.77;100.00
33554;BME280;19885;42.208;24.952;2023-03-23T04:11:14;99927.63;;;9.80;100.00
33554;BME280;19885;42.208;24.952;2023-03-23T04:13:40;99915.34;;;9.67;100.00
33554;BME280;19885;42.208;24.952;2023-03-23T04:16:06;99924.06;;;9.72;100.00
33554;BME280;19885;42.208;24.952;2023-03-23T04:18:33;99929.38;;;9.81;100.00
33554;BME280;19885;42.208;24.952;2023-03-23T04:20:59;99923.25;;;9.74;100.00
33554;BME280;19885;42.208;24.952;2023-03-23T04:23:27;99931.94;;;9.79;100.00
33554;BME280;19885;42.208;24.952;2023-03-23T04:25:56;99938.13;;;9.87;100.00
33554;BME280;19885;42.208;24.952;2023-03-23T04:28:24;99946.81;;;9.88;100.00
33554;BME280;19885;42.208;24.952;2023-03-23T04:30:51;99891.81;;;9.56;100.00
33554;BME280;19885;42.208;24.952;2023-03-23T04:33:22;99938.06;;;9.83;100.00
33554;BME280;19885;42.208;24.952;2023-03-23T04:35:52;99938.97;;;9.86;100.00
33554;BME280;19885;42.208;24.952;2023-03-23T04:38:22;99936.34;;;9.83;100.00
33554;BME280;19885;42.208;24.952;2023-03-23T04:40:50;99943.22;;;9.80;100.00
33554;BME280;19885;42.208;24.952;2023-03-23T04:43:21;99931.94;;;9.76;100.00
33554;BME280;19885;42.208;24.952;2023-03-23T04:45:58;99876.91;;;9.40;100.00
33554;BME280;19885;42.208;24.952;2023-03-23T04:48:28;99901.25;;;9.48;100.00
33554;BME280;19885;42.208;24.952;2023-03-23T04:50:56;99944.91;;;9.73;100.00
33554;BME280;19885;42.208;24.952;2023-03-23T04:53:27;99948.44;;;9.78;100.00
33554;BME280;19885;42.208;24.952;2023-03-23T04:55:52;99957.06;;;9.76;100.00
33554;BME280;19885;42.208;24.952;2023-03-23T04:58:19;99952.69;;;9.73;100.00
33554;BME280;19885;42.208;24.952;2023-03-23T05:00:46;99944.00;;;9.70;100.00
33554;BME280;19885;42.208;24.952;2023-03-23T05:03:19;99928.25;;;9.58;100.00
33554;BME280;19885;42.208;24.952;2023-03-23T05:05:46;99959.66;;;9.74;100.00
33554;BME280;19885;42.208;24.952;2023-03-23T05:08:21;99956.22;;;9.78;100.00
33554;BME280;19885;42.208;24.952;2023-03-23T05:10:55;99954.47;;;9.76;100.00
33554;BME280;19885;42.208;24.952;2023-03-23T05:13:21;99958.72;;;9.69;100.00
33554;BME280;19885;42.208;24.952;2023-03-23T05:15:47;99965.03;;;9.91;100.00
33554;BME280;19885;42.208;24.952;2023-03-23T05:18:14;99960.81;;;9.99;100.00
33554;BME280;19885;42.208;24.952;2023-03-23T05:20:40;99954.72;;;9.98;100.00
33554;BME280;19885;42.208;24.952;2023-03-23T05:23:08;99974.00;;;10.13;100.00
33554;BME280;19885;42.208;24.952;2023-03-23T05:25:35;99973.19;;;10.20;100.00
33554;BME280;19885;42.208;24.952;2023-03-23T05:28:05;99972.31;;;10.22;100.00
33554;BME280;19885;42.208;24.952;2023-03-23T05:30:31;99966.22;;;10.19;100.00
33554;BME280;19885;42.208;24.952;2023-03-23T05:32:56;99981.16;;;10.35;100.00
33554;BME280;19885;42.208;24.952;2023-03-23T05:35:22;99984.69;;;10.41;100.00
33554;BME280;19885;42.208;24.952;2023-03-23T05:37:48;99983.00;;;10.48;100.00
33554;BME280;19885;42.208;24.952;2023-03-23T05:40:13;99978.72;;;10.51;100.00
33554;BME280;19885;42.208;24.952;2023-03-23T05:42:40;99990.91;;;10.57;100.00
33554;BME280;19885;42.208;24.952;2023-03-23T05:45:11;100001.28;;;10.51;99.91
33554;BME280;19885;42.208;24.952;2023-03-23T05:47:38;99998.66;;;10.51;100.00
33554;BME280;19885;42.208;24.952;2023-03-23T05:50:05;100010.00;;;10.56;100.00
33554;BME280;19885;42.208;24.952;2023-03-23T05:52:32;100017.91;;;10.65;100.00
33554;BME280;19885;42.208;24.952;2023-03-23T05:55:01;100014.50;;;10.72;99.99
33554;BME280;19885;42.208;24.952;2023-03-23T05:57:28;100011.09;;;10.82;99.88
33554;BME280;19885;42.208;24.952;2023-03-23T05:59:54;100020.72;;;10.91;100.00
33554;BME280;19885;42.208;24.952;2023-03-23T06:02:21;100003.28;;;10.84;100.00
33554;BME280;19885;42.208;24.952;2023-03-23T06:04:48;100016.41;;;10.97;100.00
33554;BME280;19885;42.208;24.952;2023-03-23T06:07:14;99983.31;;;10.87;100.00
33554;BME280;19885;42.208;24.952;2023-03-23T06:09:41;100023.44;;;11.07;99.48
33554;BME280;19885;42.208;24.952;2023-03-23T06:12:08;100027.84;;;11.13;98.88
33554;BME280;19885;42.208;24.952;2023-03-23T06:14:35;99955.44;;;10.77;98.77
33554;BME280;19885;42.208;24.952;2023-03-23T06:17:02;100030.50;;;11.20;98.98
33554;BME280;19885;42.208;24.952;2023-03-23T06:19:28;100020.06;;;11.17;98.41
33554;BME280;19885;42.208;24.952;2023-03-23T06:21:56;100020.06;;;11.20;99.05
33554;BME280;19885;42.208;24.952;2023-03-23T06:24:22;100027.06;;;11.27;99.21
33554;BME280;19885;42.208;24.952;2023-03-23T06:26:48;100017.50;;;11.28;99.39
33554;BME280;19885;42.208;24.952;2023-03-23T06:29:15;100028.84;;;11.33;98.64
33554;BME280;19885;42.208;24.952;2023-03-23T06:31:47;100034.94;;;11.35;98.95
33554;BME280;19885;42.208;24.952;2023-03-23T06:34:14;100028.88;;;11.37;98.50
33554;BME280;19885;42.208;24.952;2023-03-23T06:36:40;100035.81;;;11.35;98.42
33554;BME280;19885;42.208;24.952;2023-03-23T06:39:06;100031.47;;;11.33;97.42
33554;BME280;19885;42.208;24.952;2023-03-23T06:41:32;100040.22;;;11.45;98.28
33554;BME280;19885;42.208;24.952;2023-03-23T06:43:59;100044.59;;;11.46;98.19
33554;BME280;19885;42.208;24.952;2023-03-23T06:46:25;100042.84;;;11.48;98.43
33554;BME280;19885;42.208;24.952;2023-03-23T06:48:51;100041.09;;;11.44;98.08
33554;BME280;19885;42.208;24.952;2023-03-23T06:51:17;100039.41;;;11.59;98.30
33554;BME280;19885;42.208;24.952;2023-03-23T06:53:44;100033.44;;;11.67;98.38
33554;BME280;19885;42.208;24.952;2023-03-23T06:56:10;100034.31;;;11.71;98.54
33554;BME280;19885;42.208;24.952;2023-03-23T06:58:36;100024.72;;;11.68;97.90
33554;BME280;19885;42.208;24.952;2023-03-23T07:01:03;100021.28;;;11.75;97.82
33554;BME280;19885;42.208;24.952;2023-03-23T07:03:29;100043.13;;;11.97;98.10
33554;BME280;19885;42.208;24.952;2023-03-23T07:05:56;100043.97;;;11.90;97.27
33554;BME280;19885;42.208;24.952;2023-03-23T07:08:22;100051.81;;;11.96;96.31
33554;BME280;19885;42.208;24.952;2023-03-23T07:10:51;100039.63;;;11.92;96.68
33554;BME280;19885;42.208;24.952;2023-03-23T07:13:19;100043.06;;;11.79;98.12
33554;BME280;19885;42.208;24.952;2023-03-23T07:15:45;100050.03;;;11.83;98.27
33554;BME280;19885;42.208;24.952;2023-03-23T07:18:13;100051.47;;;11.35;100.00
33554;BME280;19885;42.208;24.952;2023-03-23T07:20:39;100050.75;;;11.58;100.00
33554;BME280;19885;42.208;24.952;2023-03-23T07:23:05;100049.88;;;11.56;100.00
33554;BME280;19885;42.208;24.952;2023-03-23T07:25:32;100056.81;;;11.57;100.00
33554;BME280;19885;42.208;24.952;2023-03-23T07:27:59;100048.94;;;11.52;100.00
33554;BME280;19885;42.208;24.952;2023-03-23T07:30:27;99994.09;;;11.43;100.00
33554;BME280;19885;42.208;24.952;2023-03-23T07:32:55;100030.16;;;12.21;98.93
33554;BME280;19885;42.208;24.952;2023-03-23T07:35:21;100055.50;;;12.70;97.12
33554;BME280;19885;42.208;24.952;2023-03-23T07:37:47;100050.28;;;13.01;96.17
33554;BME280;19885;42.208;24.952;2023-03-23T07:40:14;100050.31;;;13.31;92.46
33554;BME280;19885;42.208;24.952;2023-03-23T07:42:45;100058.97;;;13.65;92.04
33554;BME280;19885;42.208;24.952;2023-03-23T07:45:12;100035.22;;;14.07;90.75
33554;BME280;19885;42.208;24.952;2023-03-23T07:47:41;100057.75;;;14.47;84.97
33554;BME280;19885;42.208;24.952;2023-03-23T07:50:10;100062.84;;;14.70;84.85
33554;BME280;19885;42.208;24.952;2023-03-23T07:52:37;100049.41;;;15.09;82.16
33554;BME280;19885;42.208;24.952;2023-03-23T07:55:05;100064.78;;;15.56;80.90
33554;BME280;19885;42.208;24.952;2023-03-23T07:57:31;100062.56;;;15.06;81.27
33554;BME280;19885;42.208;24.952;2023-03-23T08:00:00;100052.28;;;14.82;84.29
33554;BME280;19885;42.208;24.952;2023-03-23T08:02:28;100051.34;;;14.92;85.20
33554;BME280;19885;42.208;24.952;2023-03-23T08:04:56;100045.34;;;14.73;86.41
33554;BME280;19885;42.208;24.952;2023-03-23T08:07:28;100052.56;;;14.37;86.70
33554;BME280;19885;42.208;24.952;2023-03-23T08:09:57;100051.72;;;14.32;89.21
33554;BME280;19885;42.208;24.952;2023-03-23T08:12:23;100059.63;;;14.19;91.46
33554;BME280;19885;42.208;24.952;2023-03-23T08:14:49;100068.22;;;14.47;80.81
33554;BME280;19885;42.208;24.952;2023-03-23T08:17:14;100062.25;;;14.19;79.00
33554;BME280;19885;42.208;24.952;2023-03-23T08:19:40;100071.88;;;14.08;81.85
33554;BME280;19885;42.208;24.952;2023-03-23T08:22:06;100064.78;;;14.41;82.46
33554;BME280;19885;42.208;24.952;2023-03-23T08:24:32;100074.81;;;15.07;82.36
33554;BME280;19885;42.208;24.952;2023-03-23T08:26:59;100064.19;;;15.21;80.01
33554;BME280;19885;42.208;24.952;2023-03-23T08:29:25;100073.81;;;15.20;79.85
33554;BME280;19885;42.208;24.952;2023-03-23T08:31:51;100057.53;;;15.78;77.58
33554;BME280;19885;42.208;24.952;2023-03-23T08:34:17;100067.75;;;16.02;76.53
33554;BME280;19885;42.208;24.952;2023-03-23T08:36:43;100077.13;;;15.43;78.90
33554;BME280;19885;42.208;24.952;2023-03-23T08:39:12;100071.91;;;15.39;83.96
33554;BME280;19885;42.208;24.952;2023-03-23T08:41:40;100065.16;;;16.00;80.71
33554;BME280;19885;42.208;24.952;2023-03-23T08:44:06;100067.13;;;16.50;75.30
33554;BME280;19885;42.208;24.952;2023-03-23T08:46:34;100072.47;;;16.44;72.50
33554;BME280;19885;42.208;24.952;2023-03-23T08:49:00;100069.28;;;16.83;72.92
33554;BME280;19885;42.208;24.952;2023-03-23T08:51:26;100059.91;;;16.67;75.19
33554;BME280;19885;42.208;24.952;2023-03-23T08:53:52;100055.97;;;16.92;77.30
33554;BME280;19885;42.208;24.952;2023-03-23T08:56:17;100050.00;;;17.35;72.79
33554;BME280;19885;42.208;24.952;2023-03-23T08:58:43;100044.28;;;17.60;72.83
33554;BME280;19885;42.208;24.952;2023-03-23T09:01:09;100059.22;;;18.06;72.65
33554;BME280;19885;42.208;24.952;2023-03-23T09:03:36;100058.81;;;17.81;70.01
33554;BME280;19885;42.208;24.952;2023-03-23T09:06:05;100062.72;;;17.08;74.97
33554;BME280;19885;42.208;24.952;2023-03-23T09:08:32;100053.34;;;17.90;72.01
33554;BME280;19885;42.208;24.952;2023-03-23T09:11:05;100062.00;;;18.39;67.37
33554;BME280;19885;42.208;24.952;2023-03-23T09:13:35;100051.06;;;18.58;66.61
33554;BME280;19885;42.208;24.952;2023-03-23T09:16:02;100045.97;;;18.07;68.38
33554;BME280;19885;42.208;24.952;2023-03-23T09:18:29;100061.56;;;17.75;69.40
33554;BME280;19885;42.208;24.952;2023-03-23T09:20:58;100032.16;;;17.00;70.36
33554;BME280;19885;42.208;24.952;2023-03-23T09:23:27;100054.91;;;17.05;71.81
33554;BME280;19885;42.208;24.952;2023-03-23T09:25:53;100044.44;;;17.50;73.66
33554;BME280;19885;42.208;24.952;2023-03-23T09:28:19;100057.06;;;18.23;70.48
33554;BME280;19885;42.208;24.952;2023-03-23T09:30:45;100059.81;;;17.25;70.20
33554;BME280;19885;42.208;24.952;2023-03-23T09:33:15;100051.94;;;16.72;73.86
33554;BME280;19885;42.208;24.952;2023-03-23T09:35:41;100051.41;;;16.46;70.58
33554;BME280;19885;42.208;24.952;2023-03-23T09:38:09;100048.06;;;16.94;69.68
33554;BME280;19885;42.208;24.952;2023-03-23T09:49:27;100034.78;;;17.95;67.27
33554;BME280;19885;42.208;24.952;2023-03-23T09:51:57;100037.16;;;18.49;66.43
33554;BME280;19885;42.208;24.952;2023-03-23T09:54:46;100033.41;;;18.60;61.56
33554;BME280;19885;42.208;24.952;2023-03-23T09:57:19;100036.31;;;18.06;67.76
33554;BME280;19885;42.208;24.952;2023-03-23T09:59:57;100039.88;;;18.05;64.81
33554;BME280;19885;42.208;24.952;2023-03-23T10:02:38;100026.78;;;18.79;59.11
33554;BME280;19885;42.208;24.952;2023-03-23T10:07:56;99999.94;;;16.84;62.77
33554;BME280;19885;42.208;24.952;2023-03-23T10:10:31;100023.53;;;16.90;63.54
33554;BME280;19885;42.208;24.952;2023-03-23T10:13:18;100020.06;;;16.88;62.89
33554;BME280;19885;42.208;24.952;2023-03-23T10:15:48;100023.41;;;17.47;61.19
33554;BME280;19885;42.208;24.952;2023-03-23T10:18:41;100015.41;;;17.56;64.00
33554;BME280;19885;42.208;24.952;2023-03-23T10:21:13;100021.63;;;17.00;63.04
33554;BME280;19885;42.208;24.952;2023-03-23T10:23:42;100015.41;;;17.05;61.92
33554;BME280;19885;42.208;24.952;2023-03-23T10:26:30;100022.06;;;17.73;61.83
33554;BME280;19885;42.208;24.952;2023-03-23T10:31:47;100021.31;;;18.10;59.38
33554;BME280;19885;42.208;24.952;2023-03-23T10:34:25;100020.50;;;18.47;58.50
33554;BME280;19885;42.208;24.952;2023-03-23T10:37:02;100014.56;;;18.75;58.37
33554;BME280;19885;42.208;24.952;2023-03-23T10:39:41;100021.91;;;18.99;61.03
33554;BME280;19885;42.208;24.952;2023-03-23T10:42:09;100012.91;;;19.06;57.64
33554;BME280;19885;42.208;24.952;2023-03-23T10:44:35;99997.78;;;19.11;57.16
33554;BME280;19885;42.208;24.952;2023-03-23T10:47:08;99999.56;;;18.38;59.11
33554;BME280;19885;42.208;24.952;2023-03-23T10:49:56;100008.66;;;17.84;60.14
33554;BME280;19885;42.208;24.952;2023-03-23T10:52:41;100009.25;;;17.54;59.68
33554;BME280;19885;42.208;24.952;2023-03-23T10:57:37;100013.44;;;18.48;60.79
33554;BME280;19885;42.208;24.952;2023-03-23T11:00:05;100008.06;;;18.52;59.16
33554;BME280;19885;42.208;24.952;2023-03-23T11:02:40;100009.56;;;17.83;58.12
33554;BME280;19885;42.208;24.952;2023-03-23T11:08:00;99996.03;;;17.57;62.15
33554;BME280;19885;42.208;24.952;2023-03-23T11:10:40;99992.28;;;17.68;61.50
33554;BME280;19885;42.208;24.952;2023-03-23T11:13:13;99997.66;;;18.05;60.72
33554;BME280;19885;42.208;24.952;2023-03-23T11:15:41;100004.72;;;18.43;59.53
33554;BME280;19885;42.208;24.952;2023-03-23T11:18:13;99992.50;;;18.39;57.29
33554;BME280;19885;42.208;24.952;2023-03-23T11:20:46;99995.63;;;18.58;56.79
33554;BME280;19885;42.208;24.952;2023-03-23T11:23:27;99990.53;;;18.50;56.87
33554;BME280;19885;42.208;24.952;2023-03-23T11:25:58;99945.13;;;18.34;55.34
33554;BME280;19885;42.208;24.952;2023-03-23T11:28:33;99990.25;;;18.62;56.80
33554;BME280;19885;42.208;24.952;2023-03-23T11:31:03;99998.75;;;19.08;56.92
33554;BME280;19885;42.208;24.952;2023-03-23T11:33:47;99980.34;;;19.39;56.30
33554;BME280;19885;42.208;24.952;2023-03-23T11:36:14;99975.38;;;19.59;53.90
33554;BME280;19885;42.208;24.952;2023-03-23T11:38:43;99977.53;;;19.45;54.34
33554;BME280;19885;42.208;24.952;2023-03-23T11:41:11;99974.38;;;19.63;51.66
33554;BME280;19885;42.208;24.952;2023-03-23T11:43:44;99982.72;;;19.80;52.94
33554;BME280;19885;42.208;24.952;2023-03-23T11:46:20;99977.34;;;19.19;55.20
33554;BME280;19885;42.208;24.952;2023-03-23T11:49:01;99977.66;;;18.35;57.07
33554;BME280;19885;42.208;24.952;2023-03-23T11:51:45;99988.38;;;18.27;56.25
33554;BME280;19885;42.208;24.952;2023-03-23T11:56:45;99963.16;;;17.29;57.88
33554;BME280;19885;42.208;24.952;2023-03-23T11:59:18;99974.91;;;18.01;58.00
33554;BME280;19885;42.208;24.952;2023-03-23T12:01:56;99977.50;;;18.41;58.22
33554;BME280;19885;42.208;24.952;2023-03-23T12:10:50;99962.84;;;17.88;59.99
33554;BME280;19885;42.208;24.952;2023-03-23T12:35:47;99958.94;;;19.48;55.30
33554;BME280;19885;42.208;24.952;2023-03-23T12:45:58;99956.66;;;19.35;55.28
33554;BME280;19885;42.208;24.952;2023-03-23T12:49:09;99945.13;;;19.05;57.74
33554;BME280;19885;42.208;24.952;2023-03-23T12:54:27;99960.06;;;18.72;59.42
33554;BME280;19885;42.208;24.952;2023-03-23T12:57:11;99946.47;;;18.52;59.29
33554;BME280;19885;42.208;24.952;2023-03-23T12:59:59;99950.59;;;18.25;57.40
33554;BME280;19885;42.208;24.952;2023-03-23T13:02:36;99956.34;;;18.04;58.63
33554;BME280;19885;42.208;24.952;2023-03-23T13:07:56;99939.22;;;17.41;62.56
33554;BME280;19885;42.208;24.952;2023-03-23T13:10:40;99948.66;;;17.95;61.78
33554;BME280;19885;42.208;24.952;2023-03-23T13:13:14;99935.56;;;18.29;58.86
33554;BME280;19885;42.208;24.952;2023-03-23T13:16:10;99937.19;;;18.34;58.35
33554;BME280;19885;42.208;24.952;2023-03-23T13:18:42;99932.34;;;18.16;60.04
33554;BME280;19885;42.208;24.952;2023-03-23T13:21:24;99942.75;;;18.22;59.76
33554;BME280;19885;42.208;24.952;2023-03-23T13:23:57;99935.22;;;18.44;57.66
33554;BME280;19885;42.208;24.952;2023-03-23T13:26:24;99933.91;;;17.44;58.77
33554;BME280;19885;42.208;24.952;2023-03-23T13:31:23;99942.59;;;17.47;60.41
33554;BME280;19885;42.208;24.952;2023-03-23T13:33:58;99935.97;;;17.27;59.86
33554;BME280;19885;42.208;24.952;2023-03-23T13:36:36;99928.75;;;16.90;59.75
33554;BME280;19885;42.208;24.952;2023-03-23T13:39:06;99946.28;;;17.39;60.67
33554;BME280;19885;42.208;24.952;2023-03-23T13:50:00;99936.38;;;16.57;62.93
33554;BME280;19885;42.208;24.952;2023-03-23T14:03:25;99940.75;;;16.56;61.47
33554;BME280;19885;42.208;24.952;2023-03-23T14:06:01;99939.00;;;16.58;60.35
33554;BME280;19885;42.208;24.952;2023-03-23T14:16:21;99940.53;;;16.71;62.39
33554;BME280;19885;42.208;24.952;2023-03-23T14:18:52;99945.31;;;16.43;65.66
33554;BME280;19885;42.208;24.952;2023-03-23T14:21:48;99938.66;;;16.21;66.71
33554;BME280;19885;42.208;24.952;2023-03-23T14:24:15;99937.66;;;16.30;65.23
33554;BME280;19885;42.208;24.952;2023-03-23T14:26:41;99937.91;;;16.12;65.49
33554;BME280;19885;42.208;24.952;2023-03-23T14:29:10;99932.75;;;16.06;66.64
33554;BME280;19885;42.208;24.952;2023-03-23T14:31:37;99932.91;;;15.97;67.58
33554;BME280;19885;42.208;24.952;2023-03-23T14:34:06;99940.97;;;15.82;67.76
33554;BME280;19885;42.208;24.952;2023-03-23T14:36:36;99940.72;;;16.00;69.30
33554;BME280;19885;42.208;24.952;2023-03-23T14:39:19;99947.75;;;15.98;67.77
33554;BME280;19885;42.208;24.952;2023-03-23T14:41:46;99941.75;;;15.88;69.30
33554;BME280;19885;42.208;24.952;2023-03-23T14:44:18;99936.75;;;15.68;70.55
33554;BME280;19885;42.208;24.952;2023-03-23T14:46:47;99936.28;;;15.35;71.60
33554;BME280;19885;42.208;24.952;2023-03-23T14:49:16;99940.69;;;15.31;71.78
33554;BME280;19885;42.208;24.952;2023-03-23T14:51:51;99928.59;;;15.15;73.83
33554;BME280;19885;42.208;24.952;2023-03-23T14:54:28;99928.63;;;15.14;73.63
33554;BME280;19885;42.208;24.952;2023-03-23T14:56:55;99930.44;;;15.10;74.03